LNE1436 SPJC-SEQM
Flight info
| Callsign | LNE1436 |
|---|---|
| Flight time | 1h 44m |
| Altitude | 35000 |
| Route | ATATU UM674 KETOM |
| Aircraft | A321/M-SDE3FGHIRWY/LB1 |
Departure
| Time | 2026-04-30 17:48 |
|---|---|
| Airport | Jorge Chávez International Airport (SPJC) |
Arrival
| Time | 2026-04-30 19:32 |
|---|---|
| Airport | Mariscal Sucre International Airport (SEQM) |
| Time | Latitude | Longitude | Altitude | Speed | Heading |
|---|---|---|---|---|---|
| 2026-04-30 17:39 | -12.02300 | -77.11056 | 92 ft | 4 kts | 64° |
| 2026-04-30 17:41 | -12.02268 | -77.11095 | 91 ft | 0 kts | 188° |
| 2026-04-30 17:42 | -12.02269 | -77.11095 | 90 ft | 1 kts | 188° |
| 2026-04-30 17:42 | -12.02505 | -77.11063 | 91 ft | 13 kts | 154° |
| 2026-04-30 17:43 | -12.02649 | -77.10994 | 94 ft | 10 kts | 154° |
| 2026-04-30 17:44 | -12.02891 | -77.10875 | 101 ft | 17 kts | 154° |
| 2026-04-30 17:44 | -12.03289 | -77.10677 | 107 ft | 21 kts | 154° |
| 2026-04-30 17:46 | -12.03609 | -77.10698 | 123 ft | 14 kts | 274° |
| 2026-04-30 17:47 | -12.01679 | -77.11678 | 130 ft | 167 kts | 333° |
| 2026-04-30 17:48 | -11.99342 | -77.15514 | 1684 ft | 200 kts | 286° |
| 2026-04-30 17:48 | -11.97905 | -77.20238 | 2676 ft | 258 kts | 287° |
| 2026-04-30 17:49 | -11.95685 | -77.27424 | 5727 ft | 269 kts | 289° |
| 2026-04-30 17:50 | -11.93345 | -77.34858 | 8262 ft | 282 kts | 294° |
| 2026-04-30 17:51 | -11.89537 | -77.39512 | 9994 ft | 292 kts | 315° |
| 2026-04-30 17:52 | -11.84863 | -77.44222 | 10553 ft | 342 kts | 315° |
| 2026-04-30 17:53 | -11.75936 | -77.53236 | 12635 ft | 374 kts | 315° |
| 2026-04-30 17:54 | -11.68359 | -77.60866 | 14509 ft | 391 kts | 316° |
| 2026-04-30 17:55 | -11.60148 | -77.68251 | 16406 ft | 396 kts | 334° |
| 2026-04-30 17:56 | -11.50251 | -77.73455 | 18264 ft | 405 kts | 335° |
| 2026-04-30 17:57 | -11.42689 | -77.77444 | 19406 ft | 411 kts | 334° |
| 2026-04-30 17:58 | -11.35026 | -77.81486 | 20538 ft | 416 kts | 334° |
| 2026-04-30 17:59 | -11.24645 | -77.86957 | 22023 ft | 424 kts | 334° |
| 2026-04-30 18:00 | -11.14080 | -77.92504 | 23482 ft | 430 kts | 334° |
| 2026-04-30 18:00 | -11.05949 | -77.96317 | 24388 ft | 434 kts | 345° |
| 2026-04-30 18:01 | -10.99955 | -77.97003 | 24994 ft | 436 kts | 356° |
| 2026-04-30 18:02 | -10.90812 | -77.97460 | 25799 ft | 441 kts | 356° |
| 2026-04-30 18:02 | -10.81553 | -77.97930 | 26605 ft | 447 kts | 356° |
| 2026-04-30 18:03 | -10.72176 | -77.98413 | 27411 ft | 453 kts | 355° |
| 2026-04-30 18:04 | -10.62688 | -77.98894 | 28192 ft | 457 kts | 355° |
| 2026-04-30 18:05 | -10.50970 | -77.99473 | 29084 ft | 463 kts | 355° |
| 2026-04-30 18:06 | -10.38019 | -78.00133 | 30169 ft | 466 kts | 355° |
| 2026-04-30 18:07 | -10.25154 | -78.00781 | 31460 ft | 459 kts | 355° |
| 2026-04-30 18:08 | -10.15705 | -78.01258 | 32552 ft | 452 kts | 356° |
| 2026-04-30 18:09 | -10.03268 | -78.01886 | 33994 ft | 443 kts | 356° |
| 2026-04-30 18:10 | -9.91006 | -78.02492 | 35001 ft | 441 kts | 356° |
| 2026-04-30 18:11 | -9.69794 | -78.03566 | 35097 ft | 435 kts | 356° |
| 2026-04-30 18:13 | -9.54682 | -78.04325 | 35111 ft | 436 kts | 356° |
| 2026-04-30 18:14 | -9.39559 | -78.05081 | 35118 ft | 437 kts | 356° |
| 2026-04-30 18:15 | -9.21083 | -78.06008 | 35115 ft | 446 kts | 356° |
| 2026-04-30 18:16 | -9.08692 | -78.06634 | 35138 ft | 446 kts | 356° |
| 2026-04-30 18:17 | -9.02494 | -78.06943 | 35160 ft | 446 kts | 356° |
| 2026-04-30 18:18 | -8.93194 | -78.07404 | 35156 ft | 446 kts | 356° |
| 2026-04-30 18:18 | -8.86987 | -78.07717 | 35149 ft | 446 kts | 356° |
| 2026-04-30 18:19 | -8.80781 | -78.08025 | 35152 ft | 447 kts | 356° |
| 2026-04-30 18:19 | -8.74564 | -78.08333 | 35141 ft | 447 kts | 356° |
| 2026-04-30 18:20 | -8.68352 | -78.08647 | 35143 ft | 447 kts | 356° |
| 2026-04-30 18:20 | -8.62134 | -78.08959 | 35139 ft | 447 kts | 356° |
| 2026-04-30 18:21 | -8.55915 | -78.09270 | 35129 ft | 448 kts | 356° |
| 2026-04-30 18:21 | -8.49736 | -78.09576 | 35134 ft | 448 kts | 356° |
| 2026-04-30 18:22 | -8.43516 | -78.09885 | 35118 ft | 447 kts | 356° |
| 2026-04-30 18:22 | -8.34181 | -78.10351 | 35119 ft | 447 kts | 356° |
| 2026-04-30 18:23 | -8.27966 | -78.10663 | 35095 ft | 447 kts | 356° |
| 2026-04-30 18:23 | -8.21747 | -78.10976 | 35094 ft | 447 kts | 356° |
| 2026-04-30 18:24 | -8.12414 | -78.11443 | 35069 ft | 448 kts | 356° |
| 2026-04-30 18:25 | -8.06188 | -78.11749 | 35069 ft | 449 kts | 356° |
| 2026-04-30 18:25 | -7.96834 | -78.12212 | 35046 ft | 449 kts | 356° |
| 2026-04-30 18:26 | -7.87481 | -78.12683 | 35045 ft | 449 kts | 356° |
| 2026-04-30 18:27 | -7.78118 | -78.13152 | 35019 ft | 449 kts | 356° |
| 2026-04-30 18:28 | -7.68765 | -78.13614 | 35006 ft | 449 kts | 356° |
| 2026-04-30 18:28 | -7.59413 | -78.14081 | 35000 ft | 448 kts | 356° |
| 2026-04-30 18:29 | -7.46990 | -78.14693 | 34999 ft | 448 kts | 356° |
| 2026-04-30 18:30 | -7.34523 | -78.15298 | 34995 ft | 448 kts | 356° |
| 2026-04-30 18:31 | -7.25177 | -78.15764 | 35015 ft | 449 kts | 356° |
| 2026-04-30 18:32 | -7.15822 | -78.16236 | 35041 ft | 449 kts | 356° |
| 2026-04-30 18:33 | -7.06465 | -78.16699 | 35053 ft | 449 kts | 356° |
| 2026-04-30 18:33 | -6.97112 | -78.17156 | 35025 ft | 448 kts | 356° |
| 2026-04-30 18:34 | -6.87763 | -78.17613 | 35021 ft | 448 kts | 356° |
| 2026-04-30 18:35 | -6.81534 | -78.17926 | 35034 ft | 448 kts | 356° |
| 2026-04-30 18:35 | -6.75303 | -78.18234 | 35037 ft | 448 kts | 356° |
| 2026-04-30 18:36 | -6.65997 | -78.18685 | 35021 ft | 449 kts | 356° |
| 2026-04-30 18:37 | -6.56629 | -78.19145 | 35029 ft | 450 kts | 356° |
| 2026-04-30 18:37 | -6.50360 | -78.19455 | 35029 ft | 451 kts | 356° |
| 2026-04-30 18:38 | -6.44089 | -78.19763 | 35025 ft | 452 kts | 356° |
| 2026-04-30 18:38 | -6.37820 | -78.20069 | 35037 ft | 451 kts | 356° |
| 2026-04-30 18:39 | -6.31534 | -78.20369 | 35042 ft | 453 kts | 356° |
| 2026-04-30 18:39 | -6.25247 | -78.20674 | 35045 ft | 452 kts | 357° |
| 2026-04-30 18:40 | -6.18959 | -78.20986 | 35050 ft | 452 kts | 356° |
| 2026-04-30 18:40 | -6.12662 | -78.21294 | 35042 ft | 453 kts | 356° |
| 2026-04-30 18:41 | -6.06411 | -78.21599 | 35041 ft | 453 kts | 356° |
| 2026-04-30 18:41 | -6.00117 | -78.21906 | 35046 ft | 453 kts | 356° |
| 2026-04-30 18:42 | -5.93819 | -78.22214 | 35037 ft | 453 kts | 356° |
| 2026-04-30 18:42 | -5.84351 | -78.22678 | 35035 ft | 455 kts | 356° |
| 2026-04-30 18:45 | -5.49548 | -78.24383 | 35033 ft | 455 kts | 356° |
| 2026-04-30 18:46 | -5.43234 | -78.24687 | 35040 ft | 455 kts | 357° |
| 2026-04-30 18:46 | -5.36910 | -78.24988 | 35022 ft | 454 kts | 357° |
| 2026-04-30 18:47 | -5.30601 | -78.25302 | 35015 ft | 454 kts | 356° |
| 2026-04-30 18:47 | -5.24287 | -78.25614 | 35015 ft | 454 kts | 356° |
| 2026-04-30 18:48 | -5.17972 | -78.25923 | 35001 ft | 454 kts | 356° |
| 2026-04-30 18:48 | -5.11656 | -78.26236 | 34996 ft | 455 kts | 356° |
| 2026-04-30 18:49 | -5.05328 | -78.26541 | 34983 ft | 456 kts | 356° |
| 2026-04-30 18:49 | -4.99042 | -78.26842 | 34987 ft | 456 kts | 356° |
| 2026-04-30 18:50 | -4.92706 | -78.27146 | 34991 ft | 456 kts | 356° |
| 2026-04-30 18:50 | -4.86368 | -78.27442 | 34986 ft | 456 kts | 356° |
| 2026-04-30 18:51 | -4.80027 | -78.27756 | 34978 ft | 456 kts | 356° |
| 2026-04-30 18:51 | -4.73681 | -78.28070 | 34969 ft | 457 kts | 356° |
| 2026-04-30 18:52 | -4.67327 | -78.28378 | 34970 ft | 457 kts | 356° |
| 2026-04-30 18:52 | -4.60971 | -78.28686 | 34974 ft | 457 kts | 356° |
| 2026-04-30 18:53 | -4.54611 | -78.28989 | 34974 ft | 457 kts | 356° |
| 2026-04-30 18:53 | -4.48254 | -78.29300 | 34974 ft | 457 kts | 356° |
| 2026-04-30 18:54 | -4.41895 | -78.29620 | 34976 ft | 458 kts | 356° |
| 2026-04-30 18:54 | -4.35534 | -78.29932 | 34975 ft | 458 kts | 356° |
| 2026-04-30 18:55 | -4.29169 | -78.30232 | 34989 ft | 458 kts | 356° |
| 2026-04-30 18:55 | -4.19625 | -78.30699 | 34989 ft | 458 kts | 356° |
| 2026-04-30 18:56 | -4.11150 | -78.31111 | 34997 ft | 458 kts | 356° |
| 2026-04-30 18:57 | -4.01605 | -78.31571 | 35020 ft | 458 kts | 356° |
| 2026-04-30 18:57 | -3.95243 | -78.31876 | 35019 ft | 458 kts | 356° |
| 2026-04-30 18:58 | -3.85702 | -78.32341 | 35019 ft | 457 kts | 356° |
| 2026-04-30 18:59 | -3.76160 | -78.32805 | 35018 ft | 457 kts | 356° |
| 2026-04-30 19:00 | -3.63435 | -78.33423 | 35035 ft | 458 kts | 356° |
| 2026-04-30 19:01 | -3.50697 | -78.34037 | 35063 ft | 458 kts | 356° |
| 2026-04-30 19:02 | -3.41138 | -78.34509 | 35095 ft | 459 kts | 356° |
| 2026-04-30 19:03 | -3.28401 | -78.35147 | 35135 ft | 458 kts | 356° |
| 2026-04-30 19:04 | -3.15747 | -78.35764 | 35144 ft | 456 kts | 356° |
| 2026-04-30 19:05 | -3.03077 | -78.36395 | 35143 ft | 456 kts | 356° |
| 2026-04-30 19:06 | -2.90405 | -78.37024 | 35125 ft | 456 kts | 356° |
| 2026-04-30 19:06 | -2.80911 | -78.37491 | 35108 ft | 457 kts | 356° |
| 2026-04-30 19:07 | -2.71380 | -78.37967 | 35109 ft | 457 kts | 356° |
| 2026-04-30 19:08 | -2.58671 | -78.38588 | 35106 ft | 457 kts | 356° |
| 2026-04-30 19:09 | -2.49140 | -78.39062 | 35099 ft | 457 kts | 356° |
| 2026-04-30 19:09 | -2.42791 | -78.39377 | 35088 ft | 457 kts | 356° |
| 2026-04-30 19:10 | -2.30085 | -78.40017 | 35061 ft | 457 kts | 356° |
| 2026-04-30 19:11 | -2.20592 | -78.40480 | 35045 ft | 458 kts | 356° |
| 2026-04-30 19:12 | -2.14234 | -78.40790 | 35053 ft | 458 kts | 356° |
| 2026-04-30 19:12 | -2.07871 | -78.41103 | 35059 ft | 458 kts | 356° |
| 2026-04-30 19:13 | -1.95136 | -78.41742 | 35059 ft | 459 kts | 355° |
| 2026-04-30 19:14 | -1.88757 | -78.42059 | 35058 ft | 459 kts | 356° |
| 2026-04-30 19:14 | -1.82380 | -78.42362 | 35054 ft | 459 kts | 356° |
| 2026-04-30 19:15 | -1.75992 | -78.42673 | 34809 ft | 460 kts | 356° |
| 2026-04-30 19:15 | -1.69590 | -78.42992 | 34355 ft | 461 kts | 355° |
| 2026-04-30 19:15 | -1.66384 | -78.43154 | 34131 ft | 462 kts | 356° |
| 2026-04-30 19:16 | -1.63169 | -78.43315 | 33893 ft | 463 kts | 356° |
| 2026-04-30 19:16 | -1.59949 | -78.43475 | 33638 ft | 464 kts | 356° |
| 2026-04-30 19:16 | -1.53466 | -78.43797 | 33134 ft | 468 kts | 356° |
| 2026-04-30 19:17 | -1.50205 | -78.43960 | 32885 ft | 470 kts | 356° |
| 2026-04-30 19:17 | -1.43644 | -78.44283 | 32409 ft | 474 kts | 357° |
| 2026-04-30 19:17 | -1.40345 | -78.44445 | 32162 ft | 476 kts | 357° |
| 2026-04-30 19:18 | -1.34829 | -78.44713 | 31745 ft | 479 kts | 356° |
| 2026-04-30 19:18 | -1.30374 | -78.44933 | 31246 ft | 482 kts | 356° |
| 2026-04-30 19:18 | -1.27010 | -78.45100 | 30876 ft | 486 kts | 357° |
| 2026-04-30 19:19 | -1.23627 | -78.45268 | 30514 ft | 487 kts | 357° |
| 2026-04-30 19:19 | -1.20252 | -78.45436 | 29497 ft | 486 kts | 357° |
| 2026-04-30 19:19 | -1.13367 | -78.45758 | 26250 ft | 497 kts | 359° |
| 2026-04-30 19:20 | -1.09920 | -78.45601 | 25048 ft | 495 kts | 5° |
| 2026-04-30 19:20 | -1.06477 | -78.45334 | 23888 ft | 495 kts | 6° |
| 2026-04-30 19:20 | -0.99867 | -78.44829 | 22274 ft | 465 kts | 6° |
| 2026-04-30 19:21 | -0.96653 | -78.44585 | 21508 ft | 461 kts | 6° |
| 2026-04-30 19:21 | -0.90304 | -78.44112 | 19981 ft | 454 kts | 6° |
| 2026-04-30 19:22 | -0.84078 | -78.43641 | 18492 ft | 449 kts | 6° |
| 2026-04-30 19:22 | -0.75008 | -78.42440 | 16716 ft | 422 kts | 20° |
| 2026-04-30 19:23 | -0.67368 | -78.39271 | 16146 ft | 376 kts | 18° |
| 2026-04-30 19:24 | -0.62306 | -78.39168 | 15887 ft | 354 kts | 354° |
| 2026-04-30 19:24 | -0.59908 | -78.39464 | 15811 ft | 341 kts | 353° |
| 2026-04-30 19:24 | -0.55414 | -78.40025 | 15627 ft | 309 kts | 355° |
| 2026-04-30 19:25 | -0.49441 | -78.40768 | 15370 ft | 273 kts | 356° |
| 2026-04-30 19:26 | -0.45983 | -78.40100 | 14703 ft | 243 kts | 23° |
| 2026-04-30 19:26 | -0.42866 | -78.38967 | 14062 ft | 235 kts | 23° |
| 2026-04-30 19:26 | -0.41326 | -78.38409 | 13749 ft | 234 kts | 23° |
| 2026-04-30 19:27 | -0.38293 | -78.37335 | 13048 ft | 230 kts | 20° |
| 2026-04-30 19:27 | -0.35198 | -78.36317 | 11973 ft | 237 kts | 18° |
| 2026-04-30 19:28 | -0.33655 | -78.35816 | 11767 ft | 232 kts | 18° |
| 2026-04-30 19:28 | -0.30630 | -78.34839 | 11321 ft | 227 kts | 19° |
| 2026-04-30 19:29 | -0.27474 | -78.34795 | 10624 ft | 227 kts | 359° |
| 2026-04-30 19:29 | -0.25903 | -78.34864 | 10328 ft | 226 kts | 358° |
| 2026-04-30 19:30 | -0.21758 | -78.35044 | 9517 ft | 176 kts | 359° |
| 2026-04-30 19:30 | -0.19363 | -78.35152 | 9087 ft | 169 kts | 359° |
| 2026-04-30 19:31 | -0.17011 | -78.35256 | 8549 ft | 165 kts | 359° |
| 2026-04-30 19:31 | -0.15863 | -78.35288 | 8321 ft | 166 kts | 358° |
| 2026-04-30 19:31 | -0.13602 | -78.35390 | 7907 ft | 152 kts | 355° |
| 2026-04-30 19:32 | -0.12667 | -78.35434 | 7861 ft | 109 kts | 358° |
| 2026-04-30 19:32 | -0.12063 | -78.35462 | 7833 ft | 72 kts | 357° |
| 2026-04-30 19:32 | -0.11746 | -78.35508 | 7823 ft | 31 kts | 323° |
| 2026-04-30 19:32 | -0.11628 | -78.35621 | 7822 ft | 16 kts | 253° |
| 2026-04-30 19:33 | -0.11715 | -78.35645 | 7824 ft | 12 kts | 176° |
| 2026-04-30 19:33 | -0.11787 | -78.35641 | 7826 ft | 9 kts | 176° |
| 2026-04-30 19:33 | -0.11844 | -78.35638 | 7825 ft | 7 kts | 176° |
| 2026-04-30 19:33 | -0.11907 | -78.35635 | 7828 ft | 13 kts | 177° |
| 2026-04-30 19:34 | -0.12031 | -78.35628 | 7832 ft | 20 kts | 176° |
| 2026-04-30 19:34 | -0.12156 | -78.35622 | 7835 ft | 15 kts | 178° |
| 2026-04-30 19:34 | -0.12355 | -78.35653 | 7843 ft | 17 kts | 248° |
| 2026-04-30 19:35 | -0.12363 | -78.35765 | 7836 ft | 16 kts | 268° |
| 2026-04-30 19:35 | -0.12413 | -78.35838 | 7838 ft | 13 kts | 186° |
| 2026-04-30 19:35 | -0.12492 | -78.35849 | 7833 ft | 10 kts | 231° |
| 2026-04-30 19:35 | -0.12499 | -78.35909 | 7838 ft | 8 kts | 267° |
| 2026-04-30 19:36 | -0.12500 | -78.35926 | 7836 ft | 0 kts | 266° |